Time;durP1;ratioP1;P1;durP2;ratioP2;P2;SDS_P1;SDS_P2;PMS_P1;PMS_P2;Temp;Humidity;BMP_temperature;BMP_pressure;BME280_temperature;BME280_humidity;BME280_pressure;Samples;Min_cycle;Max_cycle;Signal;HPM_P1;HPM_P2
2021/06/19 00:01:07;;;;;;;10.88;9.77;;;17.10;99.90;;;;;;5019239;28;20049;-85
2021/06/19 00:03:34;;;;;;;11.32;10.32;;;17.00;99.90;;;;;;5019435;28;20054;-85
2021/06/19 00:06:01;;;;;;;10.48;9.68;;;16.90;99.90;;;;;;5019282;28;20052;-85
2021/06/19 00:08:28;;;;;;;11.45;10.50;;;16.80;99.90;;;;;;5036662;28;20045;-85
2021/06/19 00:10:56;;;;;;;11.63;10.43;;;16.70;99.90;;;;;;5019087;28;20053;-85
2021/06/19 00:13:23;;;;;;;10.85;9.95;;;16.70;99.90;;;;;;5018859;28;20057;-85
2021/06/19 00:15:50;;;;;;;12.48;11.02;;;16.70;99.90;;;;;;5036399;28;20081;-85
2021/06/19 00:18:17;;;;;;;11.45;10.45;;;16.60;99.90;;;;;;5018937;28;20393;-85
2021/06/19 00:20:44;;;;;;;12.50;11.18;;;16.50;99.90;;;;;;5019049;28;20050;-85
2021/06/19 00:23:12;;;;;;;12.57;11.50;;;16.40;99.90;;;;;;5018637;28;20063;-85
2021/06/19 00:25:39;;;;;;;12.65;11.23;;;16.30;99.90;;;;;;5018784;28;20055;-85
2021/06/19 00:28:05;;;;;;;12.50;11.40;;;16.30;99.90;;;;;;5036130;28;20045;-84
2021/06/19 00:30:32;;;;;;;13.10;11.82;;;16.30;99.90;;;;;;5018978;28;20056;-86
2021/06/19 00:32:59;;;;;;;13.80;12.43;;;16.30;99.90;;;;;;5035973;28;20060;-85
2021/06/19 00:35:26;;;;;;;14.00;12.57;;;16.20;99.90;;;;;;5036742;28;20053;-85
2021/06/19 00:37:52;;;;;;;12.57;11.30;;;16.20;99.90;;;;;;5040586;28;20051;-85
2021/06/19 00:40:20;;;;;;;12.95;11.73;;;16.20;99.90;;;;;;5028276;28;20433;-85
2021/06/19 00:42:55;;;;;;;14.07;11.25;;;16.20;99.90;;;;;;5038619;28;20057;-85
2021/06/19 00:45:24;;;;;;;12.30;11.20;;;16.20;99.90;;;;;;5018449;28;20054;-86
2021/06/19 00:47:52;;;;;;;13.00;11.70;;;16.30;99.90;;;;;;5018229;28;20049;-87
2021/06/19 00:50:19;;;;;;;12.32;11.25;;;16.30;99.90;;;;;;5018762;28;20052;-85
2021/06/19 00:52:47;;;;;;;12.20;10.90;;;16.30;99.90;;;;;;5018354;28;20057;-85
2021/06/19 00:55:14;;;;;;;12.23;11.10;;;16.40;99.90;;;;;;5035527;28;20052;-85
2021/06/19 00:57:41;;;;;;;12.15;10.95;;;16.40;99.90;;;;;;5018235;28;20053;-88
2021/06/19 01:00:10;;;;;;;11.82;10.73;;;16.40;99.90;;;;;;5035111;28;20111;-88
2021/06/19 01:02:38;;;;;;;12.32;11.18;;;16.50;99.90;;;;;;5035703;28;20049;-85
2021/06/19 01:05:08;;;;;;;12.18;10.98;;;16.50;99.90;;;;;;5017946;28;20128;-88
2021/06/19 01:07:34;;;;;;;12.30;11.10;;;16.40;99.90;;;;;;5035405;28;20049;-87
2021/06/19 01:10:01;;;;;;;12.23;10.98;;;16.50;99.90;;;;;;5018057;28;20049;-88
2021/06/19 01:12:28;;;;;;;11.70;10.52;;;16.50;99.90;;;;;;5035463;28;20148;-89
2021/06/19 01:14:56;;;;;;;12.27;11.02;;;16.50;99.90;;;;;;5017984;28;20063;-87
2021/06/19 01:17:23;;;;;;;12.10;11.10;;;16.40;99.90;;;;;;5035185;28;20050;-87
2021/06/19 01:20:05;;;;;;;12.23;11.02;;;16.40;99.90;;;;;;5017871;28;20128;-86
2021/06/19 01:22:33;;;;;;;12.43;11.23;;;16.30;99.90;;;;;;5035130;28;20050;-86
2021/06/19 01:25:00;;;;;;;12.18;10.63;;;16.30;99.90;;;;;;5035156;28;20042;-87
2021/06/19 01:27:29;;;;;;;14.18;11.48;;;16.30;99.90;;;;;;5017482;28;20486;-88
2021/06/19 01:30:00;;;;;;;13.43;12.07;;;16.30;99.90;;;;;;5017639;28;20089;-87
2021/06/19 01:32:29;;;;;;;13.77;12.48;;;16.20;99.90;;;;;;5017815;28;20041;-88
2021/06/19 01:34:57;;;;;;;16.77;12.43;;;16.10;99.90;;;;;;5034768;28;20107;-88
2021/06/19 01:37:24;;;;;;;15.85;13.35;;;16.00;99.90;;;;;;5034964;28;20047;-87
2021/06/19 01:39:50;;;;;;;14.65;13.20;;;16.00;99.90;;;;;;5034864;28;20052;-88
2021/06/19 01:42:17;;;;;;;13.98;12.63;;;15.90;99.90;;;;;;5034623;28;20045;-88
2021/06/19 01:44:44;;;;;;;14.80;13.30;;;15.90;99.90;;;;;;5017530;28;20046;-88
2021/06/19 01:47:11;;;;;;;14.60;13.15;;;15.80;99.90;;;;;;5016831;28;20054;-87
2021/06/19 01:49:38;;;;;;;13.88;12.45;;;15.90;99.90;;;;;;5017416;28;20061;-87
2021/06/19 01:52:05;;;;;;;12.85;11.75;;;16.00;99.90;;;;;;5017147;28;20513;-87
2021/06/19 01:54:38;;;;;;;17.23;13.55;;;16.00;99.90;;;;;;5034435;28;20059;-88
2021/06/19 01:57:08;;;;;;;13.88;12.50;;;15.90;99.90;;;;;;5018666;28;20084;-88
2021/06/19 01:59:35;;;;;;;13.10;11.93;;;15.80;99.90;;;;;;5032371;28;20129;-88
2021/06/19 02:02:03;;;;;;;14.68;12.57;;;15.90;99.90;;;;;;5020855;28;20045;-86
2021/06/19 02:04:31;;;;;;;16.75;12.25;;;15.90;99.90;;;;;;5016644;28;20073;-87
2021/06/19 02:06:58;;;;;;;13.82;12.55;;;15.90;99.90;;;;;;5016952;28;20461;-87
2021/06/19 02:09:25;;;;;;;17.15;14.10;;;16.00;99.90;;;;;;5016865;28;20051;-87
2021/06/19 02:11:52;;;;;;;17.33;13.70;;;15.90;99.90;;;;;;5033228;28;20440;-87
2021/06/19 02:14:19;;;;;;;16.00;12.80;;;15.90;99.90;;;;;;5016684;28;20504;-87
2021/06/19 02:16:46;;;;;;;13.65;12.38;;;15.80;99.90;;;;;;5034250;28;20056;-87
2021/06/19 02:19:12;;;;;;;14.25;12.48;;;15.80;99.90;;;;;;5034007;28;20092;-88
2021/06/19 02:21:39;;;;;;;15.80;14.15;;;15.80;99.90;;;;;;5034049;28;20052;-87
2021/06/19 02:24:06;;;;;;;16.67;15.07;;;15.70;99.90;;;;;;5034094;28;20104;-87
2021/06/19 02:26:33;;;;;;;15.60;14.15;;;15.60;99.90;;;;;;5016652;28;20405;-87
2021/06/19 02:29:00;;;;;;;18.13;14.88;;;15.60;99.90;;;;;;5016648;28;20052;-88
2021/06/19 02:31:27;;;;;;;16.25;14.68;;;15.60;99.90;;;;;;5016742;28;20050;-87
2021/06/19 02:33:54;;;;;;;15.68;14.27;;;15.50;99.90;;;;;;5016480;28;20065;-87
2021/06/19 02:36:21;;;;;;;16.52;14.93;;;15.50;99.90;;;;;;5033806;28;20047;-87
2021/06/19 02:38:49;;;;;;;15.85;14.27;;;15.50;99.90;;;;;;5016557;28;20132;-87
2021/06/19 02:41:15;;;;;;;16.42;14.70;;;15.40;99.90;;;;;;5015974;28;20486;-87
2021/06/19 02:43:43;;;;;;;14.77;13.38;;;15.50;99.90;;;;;;5016352;28;20517;-87
2021/06/19 02:46:10;;;;;;;15.55;14.05;;;15.40;99.90;;;;;;5016374;28;20124;-87
2021/06/19 02:48:37;;;;;;;15.30;13.80;;;15.40;99.90;;;;;;5016393;28;20422;-87
2021/06/19 02:51:04;;;;;;;14.27;13.07;;;15.50;99.90;;;;;;5016007;28;20048;-86
2021/06/19 02:53:30;;;;;;;14.73;13.30;;;15.60;99.90;;;;;;5033245;28;20505;-86
2021/06/19 02:55:58;;;;;;;15.00;13.20;;;15.60;99.90;;;;;;5015887;28;20143;-87
2021/06/19 02:58:24;;;;;;;15.10;13.65;;;15.60;99.90;;;;;;5033621;28;20464;-87
2021/06/19 03:00:51;;;;;;;15.90;13.15;;;15.60;99.90;;;;;;5016101;28;20495;-87
2021/06/19 03:03:18;;;;;;;15.75;14.15;;;15.60;99.90;;;;;;5015755;28;20553;-87
2021/06/19 03:05:45;;;;;;;15.68;12.75;;;15.60;99.90;;;;;;5015837;28;20052;-87
2021/06/19 03:08:11;;;;;;;15.93;13.68;;;15.60;99.90;;;;;;5033205;28;20059;-87
2021/06/19 03:10:40;;;;;;;15.63;14.10;;;15.50;99.90;;;;;;5033019;28;20049;-87
2021/06/19 03:13:07;;;;;;;17.50;14.75;;;15.50;99.90;;;;;;5015911;28;20760;-87
2021/06/19 03:15:34;;;;;;;18.27;15.20;;;15.40;99.90;;;;;;5016340;28;20171;-87
2021/06/19 03:18:01;;;;;;;15.68;14.23;;;15.30;99.90;;;;;;5020895;28;20108;-88
2021/06/19 03:20:28;;;;;;;18.23;15.05;;;15.30;99.90;;;;;;5030188;28;20085;-88
2021/06/19 03:22:58;;;;;;;16.88;15.05;;;15.20;99.90;;;;;;5033785;28;20085;-87
2021/06/19 03:25:28;;;;;;;16.55;15.05;;;15.20;99.90;;;;;;5019952;28;20045;-87
2021/06/19 03:27:56;;;;;;;17.25;15.50;;;15.30;99.90;;;;;;5019974;28;20056;-87
2021/06/19 03:30:23;;;;;;;20.33;16.05;;;15.30;99.90;;;;;;5037582;28;20045;-87
2021/06/19 03:32:51;;;;;;;21.90;16.20;;;15.40;99.90;;;;;;5019865;28;20490;-87
2021/06/19 03:35:19;;;;;;;17.35;15.30;;;15.50;99.90;;;;;;5019293;28;20049;-88
2021/06/19 03:37:46;;;;;;;16.50;15.00;;;15.50;99.90;;;;;;5037173;28;20508;-88
2021/06/19 03:40:16;;;;;;;17.45;15.75;;;15.50;99.90;;;;;;5019804;28;20418;-87
2021/06/19 03:42:45;;;;;;;17.15;15.65;;;15.50;99.90;;;;;;5019964;28;20081;-88
2021/06/19 03:45:13;;;;;;;16.83;14.80;;;15.50;99.90;;;;;;5019441;28;20046;-87
2021/06/19 03:47:40;;;;;;;16.40;14.90;;;15.50;99.90;;;;;;5036775;28;20045;-88
2021/06/19 03:50:12;;;;;;;17.20;15.60;;;15.50;99.90;;;;;;5019410;28;20429;-88
2021/06/19 03:52:39;;;;;;;18.13;13.85;;;15.60;99.90;;;;;;5019723;28;20061;-88
2021/06/19 03:55:07;;;;;;;14.05;12.60;;;15.80;99.90;;;;;;5036526;28;20051;-87
2021/06/19 03:57:37;;;;;;;14.65;13.32;;;15.90;99.90;;;;;;5019501;28;20059;-88
2021/06/19 04:00:06;;;;;;;13.43;12.23;;;16.10;99.90;;;;;;5019433;28;20474;-87
2021/06/19 04:02:33;;;;;;;17.75;12.63;;;16.20;99.90;;;;;;5036296;28;20055;-87
2021/06/19 04:05:00;;;;;;;15.00;12.30;;;16.30;99.90;;;;;;5019489;28;20052;-87
2021/06/19 04:07:29;;;;;;;13.77;12.43;;;16.40;99.90;;;;;;5019609;28;20512;-87
2021/06/19 04:09:56;;;;;;;12.88;11.38;;;16.60;99.90;;;;;;5019257;28;20482;-88
2021/06/19 04:12:23;;;;;;;12.23;11.23;;;16.70;99.90;;;;;;5019380;28;20052;-88
2021/06/19 04:14:51;;;;;;;12.45;11.35;;;16.80;99.90;;;;;;5036773;28;20049;-87
2021/06/19 04:17:19;;;;;;;12.32;11.07;;;16.80;99.90;;;;;;5019218;28;20059;-86
2021/06/19 04:19:47;;;;;;;13.15;11.95;;;16.80;99.90;;;;;;5018821;28;20057;-87
2021/06/19 04:22:15;;;;;;;13.02;11.68;;;16.90;99.90;;;;;;5019091;28;20099;-84
2021/06/19 04:24:42;;;;;;;13.18;12.05;;;17.10;99.90;;;;;;5036561;28;20049;-88
2021/06/19 04:27:15;;;;;;;14.50;12.63;;;17.30;99.90;;;;;;5018874;28;20055;-86
2021/06/19 04:29:42;;;;;;;15.13;12.93;;;17.50;99.90;;;;;;5019252;28;20053;-87
2021/06/19 04:32:11;;;;;;;15.20;12.70;;;17.60;99.90;;;;;;5018725;28;20056;-88
2021/06/19 04:34:42;;;;;;;16.25;13.30;;;17.70;99.90;;;;;;5035659;28;20054;-87
2021/06/19 04:37:12;;;;;;;15.38;12.07;;;17.90;99.90;;;;;;5029893;28;20053;-85
2021/06/19 04:39:55;;;;;;;12.52;11.00;;;17.90;99.90;;;;;;5028635;28;20069;-85
2021/06/19 04:42:24;;;;;;;13.55;11.43;;;18.00;99.90;;;;;;5016128;28;20137;-86
2021/06/19 04:47:24;;;;;;;12.27;10.60;;;18.40;99.90;;;;;;5016291;28;20074;-87
2021/06/19 04:49:53;;;;;;;11.73;10.63;;;18.60;99.90;;;;;;5015962;28;20054;-86
2021/06/19 04:52:21;;;;;;;10.20;9.40;;;18.90;99.90;;;;;;4998642;28;20050;-86
2021/06/19 04:54:48;;;;;;;10.15;9.30;;;19.50;99.90;;;;;;5015626;28;20054;-87
2021/06/19 04:57:15;;;;;;;10.30;9.02;;;20.40;99.90;;;;;;5015679;28;20506;-87
2021/06/19 04:59:42;;;;;;;9.95;9.05;;;20.80;99.90;;;;;;4998568;28;20049;-86
2021/06/19 05:02:09;;;;;;;9.90;9.00;;;20.80;99.90;;;;;;4998199;28;20486;-86
2021/06/19 05:04:35;;;;;;;9.75;8.85;;;20.50;99.90;;;;;;5015662;28;20062;-86
2021/06/19 05:07:02;;;;;;;9.85;9.05;;;20.50;99.90;;;;;;4998353;28;20045;-87
2021/06/19 05:09:29;;;;;;;8.95;8.07;;;20.90;99.90;;;;;;5015694;28;20046;-86
2021/06/19 05:11:56;;;;;;;11.60;9.32;;;21.70;99.90;;;;;;4993842;28;20050;-87
2021/06/19 05:14:23;;;;;;;14.77;9.80;;;22.70;99.90;;;;;;4998802;28;20080;-87
2021/06/19 05:16:49;;;;;;;17.65;9.32;;;23.50;99.90;;;;;;4997681;28;20137;-87
2021/06/19 05:19:18;;;;;;;12.88;9.82;;;24.20;99.90;;;;;;4998438;28;20121;-86
2021/06/19 05:21:45;;;;;;;12.20;8.55;;;25.40;99.90;;;;;;4998017;28;20563;-87
2021/06/19 05:24:12;;;;;;;13.52;8.85;;;26.40;99.90;;;;;;5015351;28;20154;-87
2021/06/19 05:26:40;;;;;;;14.48;9.68;;;27.00;99.90;;;;;;5015308;28;20056;-86
2021/06/19 05:29:06;;;;;;;17.88;9.20;;;27.10;99.90;;;;;;4997762;28;20050;-87
2021/06/19 05:31:33;;;;;;;9.90;8.02;;;27.20;99.90;;;;;;5014952;28;20487;-86
2021/06/19 05:34:00;;;;;;;9.10;8.20;;;28.20;99.90;;;;;;4997688;28;20050;-87
2021/06/19 05:36:27;;;;;;;12.90;8.63;;;28.90;99.90;;;;;;5015085;28;20052;-87
2021/06/19 05:38:53;;;;;;;12.95;8.55;;;29.30;99.90;;;;;;4997499;28;20483;-87
2021/06/19 05:41:20;;;;;;;24.20;9.07;;;30.70;98.00;;;;;;4998030;28;20045;-87
2021/06/19 05:43:47;;;;;;;19.83;8.40;;;31.70;93.10;;;;;;5014501;28;20057;-86
2021/06/19 05:46:14;;;;;;;11.35;7.38;;;32.80;89.80;;;;;;5014246;28;20509;-87
2021/06/19 05:48:41;;;;;;;6.97;6.32;;;33.60;83.70;;;;;;5014701;28;20418;-86
2021/06/19 05:51:08;;;;;;;6.95;6.40;;;33.80;79.20;;;;;;4997544;28;20054;-87
2021/06/19 05:53:35;;;;;;;7.75;6.65;;;33.90;77.00;;;;;;4997490;28;20046;-86
2021/06/19 05:56:02;;;;;;;7.60;6.88;;;34.30;74.70;;;;;;4997567;28;20462;-87
2021/06/19 05:58:29;;;;;;;7.65;6.93;;;33.20;76.90;;;;;;5014746;28;20391;-86
2021/06/19 06:00:56;;;;;;;7.25;6.55;;;32.40;77.80;;;;;;4997063;28;20056;-87
2021/06/19 06:03:24;;;;;;;8.32;6.07;;;31.40;80.30;;;;;;4997043;28;20064;-87
2021/06/19 06:05:51;;;;;;;7.35;6.75;;;30.70;83.20;;;;;;4997061;28;20049;-86
2021/06/19 06:08:18;;;;;;;7.80;6.95;;;30.30;85.10;;;;;;4997048;28;20145;-86
2021/06/19 06:10:45;;;;;;;6.95;6.25;;;30.10;87.00;;;;;;4996809;28;20042;-86
2021/06/19 06:13:12;;;;;;;10.23;7.00;;;31.10;86.20;;;;;;4996847;28;20441;-87
2021/06/19 06:15:39;;;;;;;12.32;7.93;;;32.10;83.10;;;;;;5014005;28;20069;-87
2021/06/19 06:18:06;;;;;;;15.30;8.65;;;32.70;82.30;;;;;;5014122;28;20054;-87
2021/06/19 06:20:33;;;;;;;12.10;7.82;;;33.70;79.20;;;;;;5014527;28;20410;-85
2021/06/19 06:23:00;;;;;;;14.88;8.20;;;34.40;75.70;;;;;;4996619;28;20069;-87
2021/06/19 06:25:27;;;;;;;23.98;11.82;;;34.80;74.00;;;;;;5013539;28;20140;-87
2021/06/19 06:27:54;;;;;;;21.23;9.10;;;34.50;74.60;;;;;;4996680;28;20046;-87
2021/06/19 06:30:21;;;;;;;15.27;8.05;;;33.80;73.70;;;;;;4996228;28;20054;-86
2021/06/19 06:32:48;;;;;;;11.00;7.25;;;34.00;75.30;;;;;;5014106;28;20081;-86
2021/06/19 06:35:15;;;;;;;11.18;6.38;;;34.40;73.90;;;;;;5013926;28;20050;-86
2021/06/19 06:37:43;;;;;;;9.45;7.40;;;35.70;71.00;;;;;;4996615;28;20046;-86
2021/06/19 06:40:12;;;;;;;10.93;7.55;;;36.80;66.90;;;;;;4996316;28;20491;-87
2021/06/19 06:42:42;;;;;;;21.80;8.55;;;37.80;64.50;;;;;;4996129;28;20054;-86
2021/06/19 06:45:13;;;;;;;;;;;38.20;61.90;;;;;;4997096;28;20607;-85
2021/06/19 06:47:42;;;;;;;9.30;6.45;;;38.60;60.80;;;;;;5013142;28;20333;-86
2021/06/19 06:50:10;;;;;;;6.90;6.20;;;38.90;59.60;;;;;;5014011;28;20053;-86
2021/06/19 06:52:41;;;;;;;6.90;6.20;;;39.10;57.70;;;;;;4997097;28;20050;-86
2021/06/19 06:55:08;;;;;;;8.55;5.72;;;38.40;59.40;;;;;;5013549;28;20046;-86
2021/06/19 06:57:35;;;;;;;6.28;5.53;;;39.50;58.20;;;;;;4995900;28;20049;-86
2021/06/19 07:00:05;;;;;;;5.43;4.90;;;39.50;56.60;;;;;;4996350;28;20475;-86
2021/06/19 07:02:31;;;;;;;7.75;5.50;;;39.70;56.90;;;;;;4996417;28;20052;-86
2021/06/19 07:04:58;;;;;;;9.27;5.32;;;40.80;56.00;;;;;;4995828;28;20045;-86
2021/06/19 07:07:25;;;;;;;9.77;5.70;;;41.10;55.50;;;;;;4996174;28;20509;-86
2021/06/19 07:09:52;;;;;;;13.45;6.20;;;40.50;55.00;;;;;;4996079;28;20152;-85
2021/06/19 07:12:19;;;;;;;16.23;7.75;;;40.50;54.30;;;;;;4996397;28;20045;-88
2021/06/19 07:14:46;;;;;;;20.15;7.15;;;40.40;55.20;;;;;;5013367;28;20041;-88
2021/06/19 07:17:12;;;;;;;23.17;7.45;;;39.90;55.60;;;;;;4996115;28;20084;-86
2021/06/19 07:19:39;;;;;;;16.80;7.38;;;40.50;56.00;;;;;;5003943;28;20052;-87
2021/06/19 07:22:08;;;;;;;16.92;7.65;;;40.50;55.10;;;;;;5027545;28;20059;-85
2021/06/19 07:24:35;;;;;;;12.45;6.32;;;40.20;56.40;;;;;;5015803;28;20053;-85
2021/06/19 07:27:03;;;;;;;15.10;6.40;;;40.70;55.60;;;;;;5015786;28;20049;-86
2021/06/19 07:29:30;;;;;;;17.65;6.88;;;41.90;54.40;;;;;;5015792;28;20091;-86
2021/06/19 07:31:57;;;;;;;15.20;6.72;;;41.20;54.40;;;;;;5015540;28;20045;-86
2021/06/19 07:34:25;;;;;;;14.02;7.38;;;41.30;54.60;;;;;;5015470;28;20049;-85
2021/06/19 07:36:52;;;;;;;18.30;8.73;;;40.80;55.10;;;;;;5015485;28;20132;-86
2021/06/19 07:39:19;;;;;;;15.05;7.13;;;39.70;56.20;;;;;;5015484;28;20041;-86
2021/06/19 07:41:46;;;;;;;9.35;6.65;;;38.70;57.40;;;;;;5015520;28;20050;-86
2021/06/19 07:44:14;;;;;;;17.58;7.05;;;38.30;57.50;;;;;;5015324;28;20504;-86
2021/06/19 07:46:42;;;;;;;9.95;5.57;;;37.60;59.50;;;;;;5015266;28;20092;-86
2021/06/19 07:49:09;;;;;;;9.40;6.10;;;36.90;60.40;;;;;;5014609;28;20136;-85
2021/06/19 07:51:36;;;;;;;17.70;6.20;;;36.30;62.20;;;;;;5032530;28;20061;-87
2021/06/19 07:54:03;;;;;;;20.00;7.45;;;35.80;64.00;;;;;;5032671;28;20045;-86
2021/06/19 07:56:29;;;;;;;14.73;5.40;;;35.40;65.60;;;;;;5015182;28;20049;-86
2021/06/19 07:58:56;;;;;;;16.45;6.07;;;35.20;65.10;;;;;;5032457;28;20383;-84
2021/06/19 08:01:23;;;;;;;10.90;5.50;;;35.10;65.70;;;;;;5015044;28;20049;-89
2021/06/19 08:03:50;;;;;;;9.27;4.75;;;35.00;67.20;;;;;;5015104;28;20355;-84
2021/06/19 08:06:16;;;;;;;11.35;4.65;;;34.90;68.10;;;;;;5014782;28;20050;-87
2021/06/19 08:08:43;;;;;;;7.75;5.05;;;34.70;69.50;;;;;;5033143;28;20500;-87
2021/06/19 08:11:10;;;;;;;7.43;4.47;;;34.60;70.40;;;;;;5019111;28;20540;-86
2021/06/19 08:13:36;;;;;;;6.28;4.00;;;34.70;70.90;;;;;;5019358;28;20572;-87
2021/06/19 08:16:05;;;;;;;5.55;3.65;;;35.30;69.20;;;;;;5018975;28;20058;-88
2021/06/19 08:18:32;;;;;;;3.92;3.60;;;35.90;63.30;;;;;;5021548;28;20049;-86
2021/06/19 08:21:01;;;;;;;5.07;3.50;;;36.40;62.40;;;;;;5018581;28;20057;-87
2021/06/19 08:23:28;;;;;;;7.10;3.40;;;37.20;61.00;;;;;;5018700;28;20469;-87
2021/06/19 08:25:54;;;;;;;10.45;3.28;;;37.80;59.40;;;;;;5018878;28;20405;-88
2021/06/19 08:28:21;;;;;;;5.40;3.47;;;38.10;59.40;;;;;;5018892;28;20516;-87
2021/06/19 08:30:48;;;;;;;7.75;3.70;;;38.00;58.90;;;;;;5018921;28;20049;-88
2021/06/19 08:33:15;;;;;;;6.35;3.75;;;37.90;60.10;;;;;;5018756;28;20136;-86
2021/06/19 08:35:42;;;;;;;11.95;3.78;;;37.40;58.90;;;;;;5018752;28;20466;-86
2021/06/19 08:38:09;;;;;;;8.25;3.38;;;37.10;59.50;;;;;;5035964;28;20053;-86
2021/06/19 08:40:38;;;;;;;7.68;3.53;;;37.60;58.20;;;;;;5036001;28;20508;-87
2021/06/19 08:43:05;;;;;;;9.00;3.67;;;38.70;57.70;;;;;;5018153;28;20055;-85
2021/06/19 08:45:33;;;;;;;6.22;2.97;;;40.00;55.50;;;;;;5018228;28;20049;-85
2021/06/19 08:48:03;;;;;;;9.10;3.28;;;40.20;54.30;;;;;;5035274;28;20060;-86
2021/06/19 08:50:30;;;;;;;8.60;3.22;;;39.00;53.00;;;;;;5018335;28;20474;-86
2021/06/19 08:52:59;;;;;;;7.35;3.20;;;39.40;53.40;;;;;;5001750;28;20049;-86
2021/06/19 08:55:26;;;;;;;14.13;3.50;;;38.60;53.40;;;;;;5035168;28;20050;-85
2021/06/19 08:57:53;;;;;;;10.00;3.67;;;37.90;54.10;;;;;;5035399;28;20055;-86
2021/06/19 09:00:20;;;;;;;9.45;3.10;;;37.00;54.90;;;;;;5018267;28;20156;-87
2021/06/19 09:02:48;;;;;;;10.55;3.40;;;35.70;56.60;;;;;;5035691;28;20161;-85
2021/06/19 09:05:23;;;;;;;13.23;3.78;;;35.00;58.70;;;;;;5017703;28;20045;-86
2021/06/19 09:07:52;;;;;;;9.30;3.10;;;34.30;60.10;;;;;;5017819;28;20124;-88
2021/06/19 09:10:33;;;;;;;10.32;3.15;;;33.90;60.40;;;;;;5017934;28;20536;-85
2021/06/19 09:13:06;;;;;;;8.00;3.17;;;33.40;63.10;;;;;;5034626;28;20046;-86
2021/06/19 09:15:45;;;;;;;7.03;3.35;;;32.80;63.80;;;;;;5017785;28;20137;-86
2021/06/19 09:18:19;;;;;;;12.55;3.45;;;32.30;64.10;;;;;;5035353;28;20076;-86
2021/06/19 09:20:54;;;;;;;10.13;3.30;;;32.20;64.90;;;;;;5034548;28;20095;-86
2021/06/19 09:23:39;;;;;;;9.02;3.20;;;32.30;65.60;;;;;;5017708;28;20099;-88
2021/06/19 09:26:13;;;;;;;9.73;3.17;;;32.30;64.00;;;;;;5017353;28;20050;-85
2021/06/19 09:29:06;;;;;;;15.00;3.13;;;32.20;65.20;;;;;;5017301;28;20056;-85
2021/06/19 09:31:54;;;;;;;7.10;2.90;;;32.50;65.40;;;;;;5017401;28;20054;-86
2021/06/19 09:34:28;;;;;;;8.55;3.25;;;32.80;64.30;;;;;;5017586;28;20135;-88
2021/06/19 09:37:08;;;;;;;8.50;3.03;;;32.80;63.40;;;;;;5017664;28;20072;-86
2021/06/19 09:39:36;;;;;;;9.10;2.95;;;33.00;63.80;;;;;;5027620;28;20071;-86
2021/06/19 09:42:05;;;;;;;8.18;3.03;;;33.20;66.00;;;;;;5017507;28;20077;-86
2021/06/19 09:44:46;;;;;;;8.57;3.25;;;33.20;61.90;;;;;;5016947;28;20053;-87
2021/06/19 09:47:18;;;;;;;8.98;3.28;;;33.40;62.50;;;;;;5017236;28;20108;-85
2021/06/19 09:49:48;;;;;;;7.40;2.78;;;33.30;62.50;;;;;;5016672;28;20060;-85
2021/06/19 09:52:26;;;;;;;11.77;3.00;;;33.00;61.60;;;;;;5034560;28;20049;-86
2021/06/19 09:54:58;;;;;;;12.52;3.30;;;33.10;61.70;;;;;;5016716;28;20089;-85
2021/06/19 09:57:43;;;;;;;11.52;3.38;;;32.90;61.80;;;;;;5017166;28;20049;-86
2021/06/19 10:00:19;;;;;;;5.88;2.90;;;32.80;64.90;;;;;;5016975;28;20041;-85
2021/06/19 10:02:48;;;;;;;9.52;2.97;;;32.90;64.00;;;;;;5016961;28;20479;-85
2021/06/19 10:05:15;;;;;;;7.00;2.35;;;33.20;63.30;;;;;;5016487;28;20045;-86
2021/06/19 10:07:42;;;;;;;10.20;2.88;;;33.40;60.20;;;;;;5017380;28;20132;-86
2021/06/19 10:10:11;;;;;;;11.50;2.88;;;33.80;60.40;;;;;;5016914;28;20578;-86
2021/06/19 10:12:40;;;;;;;9.07;2.90;;;34.00;60.20;;;;;;5034148;28;20096;-86
2021/06/19 10:15:10;;;;;;;7.97;3.28;;;34.50;61.30;;;;;;5016548;28;20053;-86
2021/06/19 10:17:44;;;;;;;12.20;3.08;;;36.90;58.30;;;;;;5016561;28;20132;-86
2021/06/19 10:20:15;;;;;;;9.75;3.40;;;38.90;54.40;;;;;;5034209;28;20084;-86
2021/06/19 10:22:44;;;;;;;10.30;2.97;;;40.10;52.00;;;;;;5017297;28;20045;-86
2021/06/19 10:25:15;;;;;;;9.57;2.42;;;42.10;50.60;;;;;;5033623;28;20128;-86
2021/06/19 10:27:49;;;;;;;9.48;2.90;;;42.10;48.90;;;;;;5016049;28;20073;-87
2021/06/19 10:30:17;;;;;;;8.30;2.80;;;43.60;48.00;;;;;;5033970;28;20053;-86
2021/06/19 10:33:24;;;;;;;8.70;2.85;;;44.90;45.40;;;;;;5018494;28;20056;-86
2021/06/19 10:35:53;;;;;;;7.95;3.22;;;46.60;43.10;;;;;;5033816;28;20114;-87
2021/06/19 10:38:20;;;;;;;14.48;3.42;;;43.50;43.80;;;;;;5016692;28;20050;-87
2021/06/19 10:40:52;;;;;;;14.23;2.83;;;42.60;44.80;;;;;;5034033;28;20524;-87
2021/06/19 10:43:22;;;;;;;9.48;2.63;;;44.40;44.50;;;;;;5034097;28;20132;-86
2021/06/19 10:45:52;;;;;;;5.53;2.70;;;46.60;43.50;;;;;;5016193;28;20053;-87
2021/06/19 10:48:31;;;;;;;10.40;2.67;;;47.00;42.00;;;;;;5016351;28;20061;-86
2021/06/19 10:51:18;;;;;;;9.70;3.17;;;47.80;41.00;;;;;;5015984;28;20069;-86
2021/06/19 10:54:11;;;;;;;8.13;3.13;;;48.70;40.20;;;;;;5015879;28;20497;-86
2021/06/19 10:56:52;;;;;;;8.18;3.10;;;47.80;39.30;;;;;;5013706;28;20696;-86
2021/06/19 10:59:23;;;;;;;13.00;2.90;;;47.80;40.40;;;;;;5015474;28;20049;-87
2021/06/19 11:01:51;;;;;;;8.57;2.58;;;48.00;40.10;;;;;;5016535;28;20049;-87
2021/06/19 11:04:39;;;;;;;9.85;2.67;;;47.50;40.00;;;;;;5016946;28;20091;-87
2021/06/19 11:07:19;;;;;;;8.90;2.90;;;47.60;40.60;;;;;;5015956;28;20053;-86
2021/06/19 11:09:48;;;;;;;6.72;2.78;;;48.00;40.00;;;;;;5032976;28;20049;-87
2021/06/19 11:12:34;;;;;;;10.75;3.22;;;48.20;39.80;;;;;;5009073;28;20045;-86
2021/06/19 11:15:08;;;;;;;8.82;3.17;;;47.30;40.00;;;;;;5004499;28;20048;-86
2021/06/19 11:17:34;;;;;;;14.20;3.22;;;46.20;40.10;;;;;;5016011;28;20125;-86
2021/06/19 11:20:11;;;;;;;9.05;3.35;;;45.90;41.00;;;;;;5015831;28;20053;-88
2021/06/19 11:22:40;;;;;;;10.88;3.38;;;44.30;41.60;;;;;;5015990;28;20058;-88
2021/06/19 11:25:26;;;;;;;7.53;3.13;;;43.30;43.40;;;;;;5015843;28;20060;-86
2021/06/19 11:28:09;;;;;;;6.93;3.10;;;41.20;43.90;;;;;;5016272;28;20079;-87
2021/06/19 11:30:35;;;;;;;8.63;3.20;;;39.80;46.10;;;;;;5015689;28;20132;-86
2021/06/19 11:33:23;;;;;;;9.55;2.90;;;39.60;45.80;;;;;;5032810;28;20049;-86
2021/06/19 11:36:11;;;;;;;11.90;3.33;;;39.60;45.60;;;;;;5015597;28;20059;-87
2021/06/19 11:38:44;;;;;;;5.10;2.47;;;39.20;45.70;;;;;;5015312;28;20481;-88
2021/06/19 11:41:12;;;;;;;10.95;2.95;;;39.50;45.80;;;;;;5015708;28;20049;-86
2021/06/19 11:43:39;;;;;;;3.97;2.47;;;39.70;44.70;;;;;;5015862;28;20045;-86
2021/06/19 11:46:06;;;;;;;9.23;2.83;;;40.20;45.30;;;;;;5019099;28;20053;-86
2021/06/19 11:48:55;;;;;;;15.60;3.03;;;40.40;43.70;;;;;;5036686;28;20056;-85
2021/06/19 11:51:24;;;;;;;9.68;3.17;;;39.90;43.80;;;;;;5019233;28;20469;-86
2021/06/19 11:53:52;;;;;;;8.73;2.63;;;39.60;44.90;;;;;;5019422;28;20053;-86
2021/06/19 11:56:22;;;;;;;6.00;2.97;;;39.30;45.80;;;;;;5036563;28;20056;-85
2021/06/19 11:58:50;;;;;;;6.60;2.85;;;39.10;45.70;;;;;;5036720;28;20409;-86
2021/06/19 12:01:19;;;;;;;6.00;2.55;;;38.80;45.70;;;;;;5019044;28;20050;-86
2021/06/19 12:03:47;;;;;;;8.43;2.70;;;38.30;46.30;;;;;;5036518;28;20045;-85
2021/06/19 12:06:14;;;;;;;9.38;2.85;;;38.40;46.90;;;;;;5019211;28;20068;-87
2021/06/19 12:08:42;;;;;;;9.77;3.00;;;38.30;46.00;;;;;;5019325;28;20050;-84
2021/06/19 12:11:09;;;;;;;11.70;2.60;;;37.50;46.70;;;;;;5018900;28;20136;-85
2021/06/19 12:13:40;;;;;;;5.50;2.60;;;37.30;48.10;;;;;;5018790;28;20049;-85
2021/06/19 12:16:09;;;;;;;6.50;2.53;;;36.80;47.80;;;;;;5035969;28;20062;-86
2021/06/19 12:18:36;;;;;;;8.38;3.17;;;36.70;48.10;;;;;;5036475;28;20128;-86
2021/06/19 12:21:06;;;;;;;6.38;2.67;;;36.80;48.40;;;;;;5036855;28;20452;-84
2021/06/19 12:23:39;;;;;;;13.43;3.03;;;36.60;48.00;;;;;;5037513;28;20115;-85
2021/06/19 12:26:14;;;;;;;4.95;2.35;;;36.60;47.30;;;;;;5035741;28;20057;-86
2021/06/19 12:28:48;;;;;;;8.38;3.20;;;36.30;51.20;;;;;;5019646;28;20194;-85
2021/06/19 12:31:17;;;;;;;10.05;3.13;;;35.80;52.20;;;;;;5019281;28;20486;-87
2021/06/19 12:33:44;;;;;;;9.40;3.53;;;35.70;52.60;;;;;;5019043;28;20049;-87
2021/06/19 12:36:13;;;;;;;9.73;3.00;;;35.80;53.40;;;;;;5019308;28;20128;-86
2021/06/19 12:38:45;;;;;;;8.55;3.15;;;35.60;53.20;;;;;;5019783;28;20049;-89
2021/06/19 12:41:11;;;;;;;9.98;2.92;;;35.70;53.40;;;;;;5018479;28;20060;-89
2021/06/19 12:43:49;;;;;;;6.45;2.88;;;35.50;53.10;;;;;;5019140;28;20056;-86
2021/06/19 12:46:18;;;;;;;13.00;2.80;;;35.60;52.90;;;;;;5018237;28;20501;-87
2021/06/19 12:48:46;;;;;;;8.95;2.95;;;35.40;53.30;;;;;;5036702;28;20060;-87
2021/06/19 12:51:24;;;;;;;6.38;2.88;;;35.20;52.60;;;;;;5009384;28;20054;-87